AFR763 TFFR-LFPG
Flight info
| Callsign | AFR763 |
|---|---|
| Flight time | N/A |
| Altitude | 35000 |
| Route | CAIRN2R CAIRN DCT CITRS/M083F350 DCT 22N055W 26N050W 30N045W 33N040W/M083F370 39N030W 45N020W 47N015W DCT TAMEL DCT EVBAK DCT RATKA/N0471F370 DCT LARLA/N0466F380 DCT GANTO/N0468F390 DCT JSY/N0457F320 UY111 INGOR/N0436F280 UM25 LUKIP |
| Aircraft | B77W/H-SDE2E3FGHIJ3J5M1P2RWXYZ/LB1D1 |
Departure
| Time | 2026-05-08 07:09 |
|---|---|
| Airport | Maryse Condé International Airport (TFFR) |
Arrival
| Time | N/A |
|---|---|
| Airport | Charles de Gaulle International Airport (LFPG) |
| Time | Latitude | Longitude | Altitude | Speed | Heading |
|---|---|---|---|---|---|
| 2026-05-08 05:52 | 16.26910 | -61.52674 | 28 ft | 0 kts | 10° |
| 2026-05-08 06:56 | 16.26907 | -61.52674 | 29 ft | 3 kts | 10° |
| 2026-05-08 06:56 | 16.26881 | -61.52679 | 30 ft | 4 kts | 10° |
| 2026-05-08 06:56 | 16.26854 | -61.52685 | 31 ft | 4 kts | 10° |
| 2026-05-08 06:56 | 16.26831 | -61.52688 | 31 ft | 4 kts | 348° |
| 2026-05-08 06:57 | 16.26813 | -61.52675 | 31 ft | 4 kts | 290° |
| 2026-05-08 06:57 | 16.26806 | -61.52649 | 31 ft | 2 kts | 282° |
| 2026-05-08 06:57 | 16.26805 | -61.52642 | 31 ft | 0 kts | 282° |
| 2026-05-08 07:03 | 16.26807 | -61.52649 | 26 ft | 7 kts | 282° |
| 2026-05-08 07:03 | 16.26823 | -61.52729 | 30 ft | 12 kts | 282° |
| 2026-05-08 07:03 | 16.26839 | -61.52815 | 29 ft | 12 kts | 280° |
| 2026-05-08 07:03 | 16.26836 | -61.52900 | 25 ft | 12 kts | 242° |
| 2026-05-08 07:04 | 16.26764 | -61.52942 | 31 ft | 12 kts | 194° |
| 2026-05-08 07:04 | 16.26681 | -61.52960 | 30 ft | 12 kts | 191° |
| 2026-05-08 07:04 | 16.26594 | -61.52978 | 29 ft | 13 kts | 191° |
| 2026-05-08 07:04 | 16.26539 | -61.52989 | 27 ft | 3 kts | 191° |
| 2026-05-08 07:05 | 16.26510 | -61.53005 | 28 ft | 5 kts | 236° |
| 2026-05-08 07:05 | 16.26507 | -61.53045 | 28 ft | 6 kts | 275° |
| 2026-05-08 07:05 | 16.26519 | -61.53123 | 26 ft | 17 kts | 281° |
| 2026-05-08 07:05 | 16.26549 | -61.53285 | 25 ft | 27 kts | 281° |
| 2026-05-08 07:06 | 16.26584 | -61.53476 | 26 ft | 27 kts | 281° |
| 2026-05-08 07:06 | 16.26619 | -61.53666 | 28 ft | 27 kts | 281° |
| 2026-05-08 07:06 | 16.26655 | -61.53854 | 26 ft | 27 kts | 281° |
| 2026-05-08 07:06 | 16.26689 | -61.54045 | 25 ft | 27 kts | 281° |
| 2026-05-08 07:07 | 16.26724 | -61.54235 | 19 ft | 27 kts | 281° |
| 2026-05-08 07:07 | 16.26759 | -61.54426 | 18 ft | 27 kts | 281° |
| 2026-05-08 07:07 | 16.26795 | -61.54616 | 16 ft | 27 kts | 281° |
| 2026-05-08 07:07 | 16.26832 | -61.54709 | 18 ft | 11 kts | 314° |
| 2026-05-08 07:08 | 16.26854 | -61.54754 | 19 ft | 4 kts | 245° |
| 2026-05-08 07:08 | 16.26829 | -61.54751 | 19 ft | 4 kts | 136° |
| 2026-05-08 07:08 | 16.26816 | -61.54717 | 18 ft | 6 kts | 107° |
| 2026-05-08 07:08 | 16.26797 | -61.54620 | 16 ft | 31 kts | 101° |
| 2026-05-08 07:09 | 16.26709 | -61.54145 | 22 ft | 103 kts | 101° |
| 2026-05-08 07:09 | 16.26533 | -61.53191 | 28 ft | 164 kts | 101° |
| 2026-05-08 07:09 | 16.26296 | -61.51901 | 193 ft | 194 kts | 101° |
| 2026-05-08 07:09 | 16.26022 | -61.50549 | 821 ft | 185 kts | 101° |
| 2026-05-08 07:10 | 16.25758 | -61.49181 | 1257 ft | 205 kts | 97° |
| 2026-05-08 07:10 | 16.25492 | -61.47713 | 1836 ft | 213 kts | 98° |
| 2026-05-08 07:10 | 16.25205 | -61.46102 | 2071 ft | 237 kts | 98° |
| 2026-05-08 07:10 | 16.24892 | -61.44405 | 2621 ft | 247 kts | 98° |
| 2026-05-08 07:11 | 16.24605 | -61.42632 | 3302 ft | 250 kts | 90° |
| 2026-05-08 07:11 | 16.24995 | -61.40880 | 3915 ft | 254 kts | 59° |
| 2026-05-08 07:11 | 16.26067 | -61.39441 | 4746 ft | 253 kts | 51° |
| 2026-05-08 07:11 | 16.27223 | -61.38030 | 5399 ft | 259 kts | 50° |
| 2026-05-08 07:12 | 16.28402 | -61.36599 | 6199 ft | 259 kts | 50° |
| 2026-05-08 07:12 | 16.29580 | -61.35175 | 6932 ft | 263 kts | 50° |
| 2026-05-08 07:12 | 16.30793 | -61.33711 | 7482 ft | 271 kts | 49° |
| 2026-05-08 07:12 | 16.32017 | -61.32233 | 8132 ft | 274 kts | 49° |
| 2026-05-08 07:13 | 16.33267 | -61.30722 | 8817 ft | 278 kts | 49° |
| 2026-05-08 07:13 | 16.34539 | -61.29185 | 9476 ft | 281 kts | 49° |
| 2026-05-08 07:13 | 16.35822 | -61.27632 | 10165 ft | 284 kts | 48° |
| 2026-05-08 07:13 | 16.37134 | -61.26044 | 10577 ft | 298 kts | 48° |
| 2026-05-08 07:14 | 16.38541 | -61.24340 | 10732 ft | 322 kts | 48° |
| 2026-05-08 07:14 | 16.40056 | -61.22506 | 10871 ft | 346 kts | 48° |
| 2026-05-08 07:14 | 16.41651 | -61.20571 | 11089 ft | 365 kts | 48° |
| 2026-05-08 07:14 | 16.43333 | -61.18529 | 11578 ft | 377 kts | 48° |
| 2026-05-08 07:15 | 16.45055 | -61.16438 | 12266 ft | 383 kts | 48° |
| 2026-05-08 07:15 | 16.46792 | -61.14325 | 13137 ft | 386 kts | 48° |
| 2026-05-08 07:15 | 16.48548 | -61.12189 | 13905 ft | 391 kts | 47° |
| 2026-05-08 07:15 | 16.50329 | -61.10024 | 14566 ft | 396 kts | 47° |
| 2026-05-08 07:16 | 16.52129 | -61.07834 | 15288 ft | 399 kts | 47° |
| 2026-05-08 07:16 | 16.53944 | -61.05626 | 16015 ft | 403 kts | 47° |
| 2026-05-08 07:16 | 16.55776 | -61.03396 | 16719 ft | 407 kts | 47° |
| 2026-05-08 07:16 | 16.57604 | -61.01170 | 17403 ft | 411 kts | 47° |
| 2026-05-08 07:17 | 16.59470 | -60.98898 | 18152 ft | 414 kts | 47° |
| 2026-05-08 07:17 | 16.61348 | -60.96610 | 18787 ft | 417 kts | 47° |
| 2026-05-08 07:17 | 16.63236 | -60.94310 | 19442 ft | 418 kts | 47° |
| 2026-05-08 07:17 | 16.65127 | -60.92003 | 20134 ft | 419 kts | 47° |
| 2026-05-08 07:18 | 16.67024 | -60.89690 | 20805 ft | 420 kts | 47° |
| 2026-05-08 07:18 | 16.68928 | -60.87368 | 21440 ft | 422 kts | 47° |
| 2026-05-08 07:18 | 16.70840 | -60.85034 | 22089 ft | 424 kts | 47° |
| 2026-05-08 07:18 | 16.72757 | -60.82694 | 22719 ft | 426 kts | 47° |
| 2026-05-08 07:19 | 16.74662 | -60.80368 | 23316 ft | 428 kts | 47° |
| 2026-05-08 07:19 | 16.76602 | -60.77999 | 23832 ft | 431 kts | 47° |
| 2026-05-08 07:19 | 16.78559 | -60.75608 | 24230 ft | 436 kts | 48° |
| 2026-05-08 07:19 | 16.80542 | -60.73183 | 24527 ft | 443 kts | 47° |
| 2026-05-08 07:20 | 16.82557 | -60.70720 | 24878 ft | 448 kts | 47° |
| 2026-05-08 07:20 | 16.84582 | -60.68242 | 25393 ft | 449 kts | 47° |
| 2026-05-08 07:20 | 16.86616 | -60.65753 | 25826 ft | 453 kts | 47° |
| 2026-05-08 07:20 | 16.88644 | -60.63271 | 26179 ft | 458 kts | 47° |
| 2026-05-08 07:21 | 16.90721 | -60.60728 | 26529 ft | 463 kts | 48° |
| 2026-05-08 07:21 | 16.92816 | -60.58153 | 26890 ft | 467 kts | 49° |
| 2026-05-08 07:21 | 16.94828 | -60.55467 | 27269 ft | 472 kts | 51° |
| 2026-05-08 07:21 | 16.96758 | -60.52677 | 27648 ft | 476 kts | 53° |
| 2026-05-08 07:22 | 16.98662 | -60.49831 | 28015 ft | 480 kts | 53° |
| 2026-05-08 07:22 | 17.00567 | -60.46962 | 28362 ft | 483 kts | 53° |
| 2026-05-08 07:22 | 17.02500 | -60.44066 | 28608 ft | 489 kts | 53° |
| 2026-05-08 07:22 | 17.04469 | -60.41143 | 28859 ft | 494 kts | 53° |
| 2026-05-08 07:23 | 17.06436 | -60.38244 | 29195 ft | 497 kts | 52° |
| 2026-05-08 07:23 | 17.08443 | -60.35298 | 29608 ft | 497 kts | 52° |
| 2026-05-08 07:23 | 17.10448 | -60.32364 | 30128 ft | 496 kts | 52° |
| 2026-05-08 07:23 | 17.12454 | -60.29429 | 30477 ft | 497 kts | 52° |
| 2026-05-08 07:24 | 17.14467 | -60.26485 | 30774 ft | 499 kts | 52° |
| 2026-05-08 07:24 | 17.16487 | -60.23528 | 31087 ft | 500 kts | 53° |
| 2026-05-08 07:24 | 17.18511 | -60.20563 | 31403 ft | 501 kts | 53° |
| 2026-05-08 07:24 | 17.20538 | -60.17591 | 31732 ft | 502 kts | 53° |
| 2026-05-08 07:25 | 17.22575 | -60.14603 | 31913 ft | 507 kts | 53° |
| 2026-05-08 07:25 | 17.24604 | -60.11625 | 32114 ft | 511 kts | 53° |
| 2026-05-08 07:25 | 17.28718 | -60.05580 | 32793 ft | 510 kts | 53° |
| 2026-05-08 07:26 | 17.30783 | -60.02545 | 33112 ft | 511 kts | 53° |
| 2026-05-08 07:26 | 17.32840 | -59.99518 | 33504 ft | 510 kts | 53° |
| 2026-05-08 07:26 | 17.34885 | -59.96509 | 34033 ft | 506 kts | 53° |
| 2026-05-08 07:26 | 17.36925 | -59.93506 | 34288 ft | 507 kts | 53° |
| 2026-05-08 07:27 | 17.38970 | -59.90495 | 34512 ft | 508 kts | 53° |
| 2026-05-08 07:27 | 17.41025 | -59.87469 | 34760 ft | 509 kts | 53° |
| 2026-05-08 07:27 | 17.43058 | -59.84473 | 34820 ft | 514 kts | 53° |
| 2026-05-08 07:27 | 17.45134 | -59.81414 | 34937 ft | 517 kts | 53° |
| 2026-05-08 07:28 | 17.47221 | -59.78337 | 34977 ft | 518 kts | 53° |
| 2026-05-08 07:28 | 17.51368 | -59.72213 | 35005 ft | 513 kts | 53° |
| 2026-05-08 07:29 | 17.55473 | -59.66147 | 35017 ft | 510 kts | 53° |
| 2026-05-08 07:29 | 17.59535 | -59.60139 | 35024 ft | 507 kts | 53° |
| 2026-05-08 07:30 | 17.63618 | -59.54098 | 35021 ft | 508 kts | 53° |
| 2026-05-08 07:30 | 17.67706 | -59.48042 | 35028 ft | 510 kts | 53° |
| 2026-05-08 07:31 | 17.71806 | -59.41963 | 35031 ft | 512 kts | 53° |
| 2026-05-08 07:31 | 17.75925 | -59.35849 | 35027 ft | 514 kts | 53° |
| 2026-05-08 07:32 | 17.80030 | -59.29751 | 35029 ft | 516 kts | 53° |
| 2026-05-08 07:32 | 17.84167 | -59.23598 | 35025 ft | 516 kts | 53° |
| 2026-05-08 07:33 | 17.88301 | -59.17445 | 35020 ft | 515 kts | 53° |
| 2026-05-08 07:33 | 17.92423 | -59.11303 | 35021 ft | 514 kts | 53° |
| 2026-05-08 07:34 | 17.96506 | -59.05216 | 35023 ft | 512 kts | 53° |
| 2026-05-08 07:34 | 18.00811 | -58.99276 | 35021 ft | 511 kts | 46° |
| 2026-05-08 07:35 | 18.05939 | -58.94114 | 35034 ft | 509 kts | 40° |
| 2026-05-08 07:35 | 18.11203 | -58.89122 | 35026 ft | 509 kts | 40° |
| 2026-05-08 07:36 | 18.16441 | -58.84111 | 35023 ft | 509 kts | 40° |
| 2026-05-08 07:36 | 18.21608 | -58.79119 | 35020 ft | 508 kts | 40° |
| 2026-05-08 07:37 | 18.26795 | -58.74087 | 35021 ft | 506 kts | 40° |
| 2026-05-08 07:37 | 18.31959 | -58.69074 | 35026 ft | 504 kts | 40° |
| 2026-05-08 07:38 | 18.37099 | -58.64084 | 35012 ft | 501 kts | 40° |
| 2026-05-08 07:38 | 18.42172 | -58.59155 | 35020 ft | 498 kts | 40° |
| 2026-05-08 07:39 | 18.47252 | -58.54216 | 35020 ft | 496 kts | 40° |
| 2026-05-08 07:39 | 18.52318 | -58.49287 | 35023 ft | 496 kts | 40° |
| 2026-05-08 07:40 | 18.57404 | -58.44335 | 35029 ft | 503 kts | 40° |
| 2026-05-08 07:40 | 18.62551 | -58.39320 | 35038 ft | 511 kts | 40° |
| 2026-05-08 07:41 | 18.67768 | -58.34230 | 35023 ft | 511 kts | 40° |
| 2026-05-08 07:41 | 18.72977 | -58.29141 | 35021 ft | 511 kts | 40° |
| 2026-05-08 07:42 | 18.78185 | -58.24050 | 35034 ft | 509 kts | 40° |
| 2026-05-08 07:42 | 18.83303 | -58.19040 | 35013 ft | 497 kts | 40° |
| 2026-05-08 07:43 | 18.88379 | -58.14073 | 35046 ft | 505 kts | 40° |
| 2026-05-08 07:43 | 18.93558 | -58.09001 | 35029 ft | 509 kts | 40° |
| 2026-05-08 07:44 | 18.98744 | -58.03914 | 35030 ft | 508 kts | 40° |
| 2026-05-08 07:44 | 19.03919 | -57.98832 | 35040 ft | 506 kts | 41° |
| 2026-05-08 07:45 | 19.08967 | -57.93869 | 35018 ft | 494 kts | 40° |
| 2026-05-08 07:45 | 19.14012 | -57.88909 | 35034 ft | 500 kts | 40° |
| 2026-05-08 07:46 | 19.19153 | -57.83854 | 35041 ft | 508 kts | 40° |
| 2026-05-08 07:46 | 19.24328 | -57.78755 | 35033 ft | 509 kts | 40° |
| 2026-05-08 07:47 | 19.29490 | -57.73663 | 35035 ft | 502 kts | 41° |
| 2026-05-08 07:47 | 19.34506 | -57.68709 | 35025 ft | 493 kts | 41° |
| 2026-05-08 07:48 | 19.39526 | -57.63751 | 35037 ft | 496 kts | 40° |
| 2026-05-08 07:48 | 19.44621 | -57.58718 | 35042 ft | 505 kts | 40° |
| 2026-05-08 07:49 | 19.49761 | -57.53633 | 35032 ft | 505 kts | 41° |
| 2026-05-08 07:49 | 19.54831 | -57.48608 | 35027 ft | 497 kts | 41° |
| 2026-05-08 07:50 | 19.59846 | -57.43634 | 35031 ft | 493 kts | 41° |
| 2026-05-08 07:50 | 19.64858 | -57.38663 | 35035 ft | 494 kts | 41° |
| 2026-05-08 07:51 | 19.69911 | -57.33646 | 35040 ft | 503 kts | 41° |
| 2026-05-08 07:51 | 19.75056 | -57.28535 | 35047 ft | 508 kts | 41° |
| 2026-05-08 07:52 | 19.80096 | -57.23516 | 35025 ft | 493 kts | 41° |
| 2026-05-08 07:52 | 19.85075 | -57.18554 | 35030 ft | 490 kts | 41° |
| 2026-05-08 07:53 | 19.90048 | -57.13599 | 35038 ft | 490 kts | 41° |
| 2026-05-08 07:53 | 19.95040 | -57.08621 | 35031 ft | 496 kts | 41° |
| 2026-05-08 07:54 | 20.00089 | -57.03583 | 35056 ft | 503 kts | 41° |
| 2026-05-08 07:54 | 20.05139 | -56.98532 | 35025 ft | 494 kts | 41° |
| 2026-05-08 07:55 | 20.10131 | -56.93535 | 35035 ft | 492 kts | 41° |
| 2026-05-08 07:55 | 20.15120 | -56.88541 | 35036 ft | 492 kts | 41° |
| 2026-05-08 07:56 | 20.20075 | -56.83576 | 35037 ft | 493 kts | 41° |
| 2026-05-08 07:56 | 20.25087 | -56.78548 | 35041 ft | 496 kts | 41° |
| 2026-05-08 07:57 | 20.30114 | -56.73501 | 35042 ft | 497 kts | 41° |
| 2026-05-08 07:57 | 20.35151 | -56.68438 | 35035 ft | 498 kts | 41° |
| 2026-05-08 07:58 | 20.40158 | -56.63400 | 35039 ft | 498 kts | 41° |
| 2026-05-08 07:58 | 20.45197 | -56.58326 | 35049 ft | 498 kts | 41° |
| 2026-05-08 07:59 | 20.50220 | -56.53263 | 35039 ft | 496 kts | 41° |
| 2026-05-08 07:59 | 20.55228 | -56.48210 | 35039 ft | 495 kts | 41° |
| 2026-05-08 08:00 | 20.60193 | -56.43197 | 35040 ft | 494 kts | 41° |
| 2026-05-08 08:00 | 20.65179 | -56.38157 | 35043 ft | 494 kts | 41° |
| 2026-05-08 08:01 | 20.70162 | -56.33116 | 35059 ft | 493 kts | 41° |
| 2026-05-08 08:01 | 20.75132 | -56.28082 | 35034 ft | 492 kts | 41° |
| 2026-05-08 08:02 | 20.80100 | -56.23047 | 35046 ft | 493 kts | 41° |
| 2026-05-08 08:02 | 20.85042 | -56.18033 | 35044 ft | 493 kts | 41° |
| 2026-05-08 08:03 | 20.90022 | -56.12975 | 35045 ft | 494 kts | 41° |
| 2026-05-08 08:03 | 20.95012 | -56.07902 | 35044 ft | 495 kts | 41° |
| 2026-05-08 08:04 | 21.00007 | -56.02820 | 35044 ft | 496 kts | 41° |
| 2026-05-08 08:04 | 21.04973 | -55.97762 | 35044 ft | 496 kts | 41° |
| 2026-05-08 08:05 | 21.09971 | -55.92666 | 35043 ft | 496 kts | 41° |
| 2026-05-08 08:05 | 21.14964 | -55.87570 | 35054 ft | 495 kts | 42° |
| 2026-05-08 08:06 | 21.19934 | -55.82492 | 35042 ft | 493 kts | 42° |
| 2026-05-08 08:06 | 21.24836 | -55.77480 | 35039 ft | 490 kts | 41° |
| 2026-05-08 08:07 | 21.29773 | -55.72427 | 35045 ft | 491 kts | 41° |
| 2026-05-08 08:07 | 21.34723 | -55.67356 | 35051 ft | 492 kts | 41° |
| 2026-05-08 08:08 | 21.39675 | -55.62278 | 35049 ft | 492 kts | 42° |
| 2026-05-08 08:08 | 21.44580 | -55.57243 | 35043 ft | 491 kts | 42° |
| 2026-05-08 08:09 | 21.49504 | -55.52182 | 35048 ft | 489 kts | 41° |
| 2026-05-08 08:09 | 21.54427 | -55.47119 | 35047 ft | 490 kts | 41° |
| 2026-05-08 08:10 | 21.59357 | -55.42043 | 35067 ft | 491 kts | 42° |
| 2026-05-08 08:10 | 21.64250 | -55.37000 | 35050 ft | 490 kts | 42° |
| 2026-05-08 08:11 | 21.69164 | -55.31931 | 35049 ft | 489 kts | 42° |
| 2026-05-08 08:11 | 21.74063 | -55.26872 | 35047 ft | 487 kts | 42° |
| 2026-05-08 08:12 | 21.78955 | -55.21815 | 35053 ft | 488 kts | 42° |
| 2026-05-08 08:12 | 21.83857 | -55.16743 | 35050 ft | 489 kts | 42° |
| 2026-05-08 08:13 | 21.88726 | -55.11700 | 35052 ft | 489 kts | 42° |
| 2026-05-08 08:13 | 21.93629 | -55.06615 | 35052 ft | 489 kts | 42° |
| 2026-05-08 08:14 | 21.98528 | -55.01531 | 35052 ft | 489 kts | 42° |
| 2026-05-08 08:14 | 22.03250 | -54.96247 | 35064 ft | 490 kts | 45° |
| 2026-05-08 08:15 | 22.07773 | -54.90826 | 35050 ft | 490 kts | 46° |
| 2026-05-08 08:15 | 22.12314 | -54.85358 | 35053 ft | 489 kts | 46° |
| 2026-05-08 08:16 | 22.16864 | -54.79906 | 35049 ft | 489 kts | 46° |
| 2026-05-08 08:16 | 22.21416 | -54.74467 | 35059 ft | 488 kts | 45° |
| 2026-05-08 08:17 | 22.25965 | -54.69029 | 35053 ft | 488 kts | 45° |
| 2026-05-08 08:17 | 22.30473 | -54.63636 | 35054 ft | 487 kts | 45° |
| 2026-05-08 08:18 | 22.35003 | -54.58208 | 35058 ft | 486 kts | 45° |
| 2026-05-08 08:18 | 22.39524 | -54.52784 | 35044 ft | 485 kts | 45° |
| 2026-05-08 08:19 | 22.44036 | -54.47366 | 35054 ft | 485 kts | 45° |
| 2026-05-08 08:19 | 22.48541 | -54.41950 | 35042 ft | 484 kts | 45° |
| 2026-05-08 08:20 | 22.53011 | -54.36572 | 35053 ft | 484 kts | 45° |
| 2026-05-08 08:20 | 22.57504 | -54.31160 | 35052 ft | 483 kts | 45° |
| 2026-05-08 08:21 | 22.61997 | -54.25742 | 35054 ft | 483 kts | 45° |
| 2026-05-08 08:21 | 22.66481 | -54.20329 | 35058 ft | 483 kts | 45° |
| 2026-05-08 08:22 | 22.70929 | -54.14954 | 35052 ft | 482 kts | 45° |
| 2026-05-08 08:22 | 22.75402 | -54.09543 | 35059 ft | 482 kts | 45° |
| 2026-05-08 08:23 | 22.79866 | -54.04138 | 35056 ft | 482 kts | 45° |
| 2026-05-08 08:23 | 22.84335 | -53.98720 | 35074 ft | 481 kts | 45° |
| 2026-05-08 08:24 | 22.88793 | -53.93310 | 35065 ft | 481 kts | 45° |
| 2026-05-08 08:24 | 22.93223 | -53.87928 | 35057 ft | 482 kts | 45° |
| 2026-05-08 08:25 | 22.97683 | -53.82505 | 35055 ft | 482 kts | 45° |
| 2026-05-08 08:25 | 23.02148 | -53.77068 | 35057 ft | 483 kts | 45° |
| 2026-05-08 08:26 | 23.06625 | -53.71613 | 35061 ft | 487 kts | 45° |
| 2026-05-08 08:26 | 23.11182 | -53.66057 | 35076 ft | 496 kts | 45° |
| 2026-05-08 08:27 | 23.15738 | -53.60491 | 35061 ft | 497 kts | 45° |
| 2026-05-08 08:27 | 23.20325 | -53.54879 | 35058 ft | 496 kts | 45° |
| 2026-05-08 08:28 | 23.24848 | -53.49337 | 35057 ft | 483 kts | 45° |
| 2026-05-08 08:28 | 23.29247 | -53.43943 | 35056 ft | 478 kts | 45° |
| 2026-05-08 08:29 | 23.33661 | -53.38532 | 35057 ft | 479 kts | 45° |
| 2026-05-08 08:29 | 23.38086 | -53.33100 | 35060 ft | 480 kts | 45° |
| 2026-05-08 08:30 | 23.42521 | -53.27648 | 35078 ft | 481 kts | 45° |
| 2026-05-08 08:30 | 23.49136 | -53.19503 | 35063 ft | 481 kts | 45° |
| 2026-05-08 08:31 | 23.53579 | -53.14026 | 35065 ft | 483 kts | 45° |
| 2026-05-08 08:31 | 23.58037 | -53.08524 | 35061 ft | 485 kts | 45° |
| 2026-05-08 08:32 | 23.62488 | -53.03022 | 35071 ft | 480 kts | 45° |
| 2026-05-08 08:32 | 23.66869 | -52.97599 | 35059 ft | 479 kts | 45° |
| 2026-05-08 08:33 | 23.71305 | -52.92113 | 35073 ft | 490 kts | 45° |
| 2026-05-08 08:33 | 23.75822 | -52.86514 | 35062 ft | 492 kts | 45° |
| 2026-05-08 08:34 | 23.80343 | -52.80900 | 35075 ft | 488 kts | 45° |
| 2026-05-08 08:34 | 23.84737 | -52.75430 | 35042 ft | 474 kts | 45° |
| 2026-05-08 08:35 | 23.89145 | -52.69953 | 35074 ft | 486 kts | 45° |
| 2026-05-08 08:35 | 23.93623 | -52.64385 | 35067 ft | 494 kts | 45° |
| 2026-05-08 08:36 | 23.98155 | -52.58733 | 35073 ft | 494 kts | 45° |
| 2026-05-08 08:36 | 24.02605 | -52.53166 | 35049 ft | 478 kts | 45° |
| 2026-05-08 08:37 | 24.06999 | -52.47677 | 35079 ft | 485 kts | 45° |
| 2026-05-08 08:37 | 24.11469 | -52.42094 | 35066 ft | 496 kts | 45° |
| 2026-05-08 08:38 | 24.16007 | -52.36410 | 35065 ft | 497 kts | 45° |
| 2026-05-08 08:38 | 24.20518 | -52.30745 | 35064 ft | 487 kts | 45° |
| 2026-05-08 08:39 | 24.24959 | -52.25167 | 35060 ft | 490 kts | 45° |
| 2026-05-08 08:39 | 24.29489 | -52.19483 | 35082 ft | 500 kts | 45° |
| 2026-05-08 08:40 | 24.34046 | -52.13750 | 35071 ft | 502 kts | 45° |
| 2026-05-08 08:40 | 24.38579 | -52.08029 | 35065 ft | 487 kts | 45° |
| 2026-05-08 08:41 | 24.42981 | -52.02470 | 35056 ft | 486 kts | 45° |
| 2026-05-08 08:41 | 24.47485 | -51.96794 | 35081 ft | 499 kts | 46° |
| 2026-05-08 08:42 | 24.50066 | -51.93535 | 35085 ft | 505 kts | 46° |
| 2026-05-08 08:42 | 24.51619 | -51.91573 | 35082 ft | 507 kts | 46° |
| 2026-05-08 08:43 | 24.51732 | -51.91430 | 35082 ft | 508 kts | 46° |